Huntersville, Pennsylvania
Current Conditions -  °F | °C
As of 4:54 AM on Thursday 29 Jan 2015 (Local Time) from KIPT Reporting Station
Clear Clear  
Wind Chill: -4°   Ceiling: Unl
Heat Index:   Visibility: 10mi
Dew Point: -2°   Wind: 5mph
Humidity: 73%   Direction: 350°N
Pressure: 30.32"   Gusts: NA
Location:  41.225°N, 76.7388°W
Report Text: KIPT 290954Z AUTO 35004KT 10SM CLR M15/M19 A3032 RMK AO2 SLP278 T11501189
Loading
Personal Weather Stations






























Interactive Weather Map New forecast layout! Learn more

10-Day Weather Forecast

Advertisements
Track Severe Weather on mobile